Flight Track Log - Related Links

Times and Time Zones

All times are in EDT time to prevent confusion due to time zone crossing. See the N658FE flight status page for this flight to view local times or setup timezone preferences in your user account.

Time Position Orientation Groundspeed Altitude Reporting Facility
EDT Latitude Longitude Course Direction KTS MPH feet Rate Location/Type
Wed 04:44:29 AM 35.0167 -89.9667 180° South 154 177 1,300  Level KMEM
Wed 04:45:29 AM 34.9667 -89.9667 180° South 231 266 3,300 3,100 Climbing KMEM
Wed 04:46:29 AM 34.9167 -89.9000 132° Southeast 298 343 7,500 3,565 Climbing KMEM
Wed 04:48:56 AM 34.9886 -89.6347 72° East 347 399 15,600 3,333 Climbing Memphis Center
Wed 04:49:56 AM 35.0525 -89.5125 57° Northeast 385 443 19,000 3,200 Climbing Memphis Center
Wed 04:50:56 AM 35.1142 -89.3872 59° Northeast 423 487 22,000 2,950 Climbing Memphis Center
Wed 04:51:56 AM 35.1819 -89.2544 58° Northeast 439 505 24,900 2,650 Climbing Memphis Center
Wed 04:52:56 AM 35.2536 -89.1214 57° Northeast 459 528 27,300 2,050 Climbing Memphis Center
Wed 04:53:56 AM 35.3400 -88.9978 49° Northeast 469 540 29,000 850 Climbing Memphis Center
Wed 04:54:56 AM 35.4242 -88.8792 49° Northeast 469 540 29,000 -759 Level Memphis Center
Wed 05:01:02 AM 35.9270 -88.1470 49° Northeast 29,000 -780 Level FlightAware ADS-B
Wed 05:01:42 AM 35.9850 -88.0630 50° Northeast 29,000 -936 Level FlightAware ADS-B
Wed 05:02:27 AM 36.0470 -87.9710 50° Northeast 29,000 -957 Level FlightAware ADS-B
Wed 05:03:07 AM 36.1050 -87.8850 50° Northeast 29,000 -982 Level FlightAware ADS-B
Wed 05:03:52 AM 36.1660 -87.7940 50° Northeast 29,000 -1,005 Level FlightAware ADS-B
Wed 05:04:32 AM 36.2210 -87.7130 50° Northeast 29,000 -1,033 Level FlightAware ADS-B
Wed 05:05:12 AM 36.2750 -87.6320 50° Northeast 29,000 -1,058 Level FlightAware ADS-B
Wed 05:05:57 AM 36.3380 -87.5380 50° Northeast 29,000 -1,085 Level FlightAware ADS-B
Wed 05:06:37 AM 36.3930 -87.4560 50° Northeast 29,000 -1,117 Level FlightAware ADS-B
Wed 05:07:22 AM 36.4530 -87.3670 50° Northeast 29,000 -1,147 Level FlightAware ADS-B
Wed 05:08:02 AM 36.5090 -87.2820 51° Northeast 29,000 -1,183 Level FlightAware ADS-B
Wed 05:08:47 AM 36.5720 -87.1860 51° Northeast 29,000 -1,217 Level FlightAware ADS-B
Wed 05:09:27 AM 36.6280 -87.1020 50° Northeast 29,000 -1,258 Level FlightAware ADS-B
Wed 05:10:12 AM 36.6880 -87.0110 51° Northeast 28,600 -1,296 Descending FlightAware ADS-B
Wed 05:10:52 AM 36.7430 -86.9270 51° Northeast 27,900 -1,323 Descending FlightAware ADS-B
Wed 05:11:32 AM 36.7960 -86.8460 51° Northeast 27,300 -1,332 Descending FlightAware ADS-B
Wed 05:12:12 AM 36.8520 -86.7600 51° Northeast 26,600 -1,346 Descending FlightAware ADS-B
Wed 05:12:57 AM 36.9090 -86.6610 54° Northeast 25,800 -1,357 Descending FlightAware ADS-B
Wed 05:13:18 AM 36.9254 -86.5997 71° East 25,400 -1,368 Descending FlightAware ADS-B
Wed 05:13:52 AM 36.9470 -86.5210 71° East 24,800 -1,373 Descending FlightAware ADS-B
Wed 05:14:27 AM 36.9716 -86.4277 72° East 24,200 -1,383 Descending FlightAware ADS-B
Wed 05:18:07 AM 37.2450 -86.0220 50° Northeast 16,700 -1,395 Descending FlightAware ADS-B
Wed 05:19:02 AM 37.3230 -85.9450 38° Northeast 14,600 -1,215 Descending FlightAware ADS-B
Wed 05:21:37 AM 37.5630 -85.8480 18° North 10,000 -1,135 Descending FlightAware ADS-B
Wed 05:22:12 AM 37.6200 -85.8530 356° North 10,000 -964 Level FlightAware ADS-B
Wed 05:23:22 AM 37.7280 -85.8470 North 10,000 -1,025 Level FlightAware ADS-B
Wed 05:23:57 AM 37.7710 -85.8290 18° North 9,400 -1,175 Descending FlightAware ADS-B
Wed 05:24:17 AM 37.7920 -85.8200 19° North 8,800 -1,187 Descending FlightAware ADS-B
Wed 05:24:52 AM 37.8330 -85.8030 18° North 7,300 -1,158 Descending FlightAware ADS-B
Wed 05:25:17 AM 37.8620 -85.7910 18° North 6,200 -1,031 Descending FlightAware ADS-B
Wed 05:25:47 AM 37.8950 -85.7770 19° North 4,900 -921 Descending FlightAware ADS-B
Wed 05:26:17 AM 37.9290 -85.7640 17° North 3,800 -770 Descending FlightAware ADS-B
Wed 05:26:27 AM 37.9400 -85.7590 20° North 3,400 -630 Descending FlightAware ADS-B
Wed 05:26:57 AM 37.9720 -85.7450 19° North 3,100 -569 Descending FlightAware ADS-B
Wed 05:27:27 AM 38.0020 -85.7340 16° North 3,000 -566 Descending FlightAware ADS-B
Wed 05:27:52 AM 38.0230 -85.7260 17° North 2,800 -613 Descending FlightAware ADS-B
Wed 05:28:22 AM 38.0440 -85.7170 19° North 2,500 -629 Descending FlightAware ADS-B
Wed 05:28:47 AM 38.0620 -85.7140 North 2,200 -633 Descending FlightAware ADS-B
Wed 05:29:17 AM 38.0800 -85.7150 357° North 1,900 -619 Descending FlightAware ADS-B
Wed 05:29:47 AM 38.0970 -85.7190 350° North 1,800 -624 Descending FlightAware ADS-B
Wed 05:30:12 AM 38.1120 -85.7240 345° North 1,500 -758 Descending FlightAware ADS-B
Wed 05:30:37 AM 38.1270 -85.7290 345° North 1,200 -771 Descending FlightAware ADS-B
Wed 05:31:07 AM 38.1440 -85.7350 344° North 800 -800 Descending FlightAware ADS-B
Wed 05:31:22 AM 38.1520 -85.7370 349° North 600 -800 Descending FlightAware ADS-B

Login

Don't have an account? Register now (free) for customized features, flight alerts, and more!